Owego, Iowa
Current Conditions -  °F | °C
As of 10:52 AM on Saturday 20 Dec 2014 (Local Time) from KSUX Reporting Station
Haze Haze  
Wind Chill: 25°   Ceiling: 700
Heat Index: 33°   Visibility: 6mi
Dew Point: 30°   Wind: 9mph
Humidity: 89%   Direction: 170°S
Pressure: 30.11"   Gusts: NA
Location:  42.3446°N, 96.2663°W
Report Text: KSUX 201652Z 17008KT 6SM BR OVC007 01/M01 A3011 RMK AO2 SLP209 T00061011
Loading
Personal Weather Stations






























Interactive Weather Map New forecast layout! Learn more

10-Day Weather Forecast

Advertisements
Track Severe Weather on mobile